sensor_id;sensor_type;location;lat;lon;timestamp;P1;durP1;ratioP1;P2;durP2;ratioP2
24644;SDS011;12780;45.502;9.146;2023-05-07T00:01:59;25.13;;;16.40;;
24644;SDS011;12780;45.502;9.146;2023-05-07T00:04:25;34.33;;;19.20;;
24644;SDS011;12780;45.502;9.146;2023-05-07T00:06:54;22.48;;;14.68;;
24644;SDS011;12780;45.502;9.146;2023-05-07T00:09:20;19.60;;;13.77;;
24644;SDS011;12780;45.502;9.146;2023-05-07T00:11:46;29.00;;;19.13;;
24644;SDS011;12780;45.502;9.146;2023-05-07T00:14:12;26.05;;;12.18;;
24644;SDS011;12780;45.502;9.146;2023-05-07T00:16:38;16.50;;;8.82;;
24644;SDS011;12780;45.502;9.146;2023-05-07T00:19:04;14.95;;;7.75;;
24644;SDS011;12780;45.502;9.146;2023-05-07T00:21:30;16.77;;;5.88;;
24644;SDS011;12780;45.502;9.146;2023-05-07T00:23:56;11.15;;;5.63;;
24644;SDS011;12780;45.502;9.146;2023-05-07T00:26:24;12.40;;;5.35;;
24644;SDS011;12780;45.502;9.146;2023-05-07T00:28:50;7.18;;;4.38;;
24644;SDS011;12780;45.502;9.146;2023-05-07T00:31:16;8.43;;;4.32;;
24644;SDS011;12780;45.502;9.146;2023-05-07T00:33:42;10.63;;;4.40;;
24644;SDS011;12780;45.502;9.146;2023-05-07T00:36:08;6.43;;;3.80;;
24644;SDS011;12780;45.502;9.146;2023-05-07T00:38:34;7.82;;;3.65;;
24644;SDS011;12780;45.502;9.146;2023-05-07T00:41:00;9.63;;;4.22;;
24644;SDS011;12780;45.502;9.146;2023-05-07T00:43:27;7.53;;;4.18;;
24644;SDS011;12780;45.502;9.146;2023-05-07T00:45:53;8.02;;;4.38;;
24644;SDS011;12780;45.502;9.146;2023-05-07T00:48:19;8.10;;;4.07;;
24644;SDS011;12780;45.502;9.146;2023-05-07T00:50:45;9.98;;;4.07;;
24644;SDS011;12780;45.502;9.146;2023-05-07T00:53:12;5.88;;;3.90;;
24644;SDS011;12780;45.502;9.146;2023-05-07T00:55:38;7.15;;;4.43;;
24644;SDS011;12780;45.502;9.146;2023-05-07T00:58:04;5.35;;;3.92;;
24644;SDS011;12780;45.502;9.146;2023-05-07T01:00:31;12.57;;;3.90;;
24644;SDS011;12780;45.502;9.146;2023-05-07T01:02:57;5.57;;;3.88;;
24644;SDS011;12780;45.502;9.146;2023-05-07T01:05:23;3.97;;;3.17;;
24644;SDS011;12780;45.502;9.146;2023-05-07T01:07:50;6.95;;;3.40;;
24644;SDS011;12780;45.502;9.146;2023-05-07T01:10:16;7.45;;;4.47;;
24644;SDS011;12780;45.502;9.146;2023-05-07T01:12:43;6.82;;;4.13;;
24644;SDS011;12780;45.502;9.146;2023-05-07T01:15:10;9.23;;;4.70;;
24644;SDS011;12780;45.502;9.146;2023-05-07T01:17:37;8.15;;;3.88;;
24644;SDS011;12780;45.502;9.146;2023-05-07T01:20:04;5.32;;;3.28;;
24644;SDS011;12780;45.502;9.146;2023-05-07T01:22:33;5.03;;;2.80;;
24644;SDS011;12780;45.502;9.146;2023-05-07T01:25:01;3.40;;;2.78;;
24644;SDS011;12780;45.502;9.146;2023-05-07T01:27:28;7.72;;;2.67;;
24644;SDS011;12780;45.502;9.146;2023-05-07T01:29:54;6.00;;;2.80;;
24644;SDS011;12780;45.502;9.146;2023-05-07T01:32:21;6.38;;;2.60;;
24644;SDS011;12780;45.502;9.146;2023-05-07T01:34:49;4.15;;;2.80;;
24644;SDS011;12780;45.502;9.146;2023-05-07T01:37:16;6.57;;;2.50;;
24644;SDS011;12780;45.502;9.146;2023-05-07T01:39:43;4.72;;;2.60;;
24644;SDS011;12780;45.502;9.146;2023-05-07T01:42:10;4.53;;;2.03;;
24644;SDS011;12780;45.502;9.146;2023-05-07T01:44:36;2.05;;;1.80;;
24644;SDS011;12780;45.502;9.146;2023-05-07T01:47:02;3.13;;;2.20;;
24644;SDS011;12780;45.502;9.146;2023-05-07T01:49:28;3.97;;;1.80;;
24644;SDS011;12780;45.502;9.146;2023-05-07T01:51:55;4.50;;;1.98;;
24644;SDS011;12780;45.502;9.146;2023-05-07T01:54:25;7.95;;;2.20;;
24644;SDS011;12780;45.502;9.146;2023-05-07T01:56:52;3.75;;;1.75;;
24644;SDS011;12780;45.502;9.146;2023-05-07T01:59:18;3.03;;;1.70;;
24644;SDS011;12780;45.502;9.146;2023-05-07T02:01:44;8.77;;;1.88;;
24644;SDS011;12780;45.502;9.146;2023-05-07T02:04:10;6.07;;;1.65;;
24644;SDS011;12780;45.502;9.146;2023-05-07T02:06:36;4.55;;;1.40;;
24644;SDS011;12780;45.502;9.146;2023-05-07T02:09:02;2.63;;;1.58;;
24644;SDS011;12780;45.502;9.146;2023-05-07T02:11:28;6.30;;;1.33;;
24644;SDS011;12780;45.502;9.146;2023-05-07T02:13:55;10.45;;;1.63;;
24644;SDS011;12780;45.502;9.146;2023-05-07T02:16:21;2.33;;;1.30;;
24644;SDS011;12780;45.502;9.146;2023-05-07T02:18:48;6.03;;;1.35;;
24644;SDS011;12780;45.502;9.146;2023-05-07T02:21:14;4.05;;;1.25;;
24644;SDS011;12780;45.502;9.146;2023-05-07T02:23:40;3.60;;;1.50;;
24644;SDS011;12780;45.502;9.146;2023-05-07T02:26:06;3.42;;;1.30;;
24644;SDS011;12780;45.502;9.146;2023-05-07T02:28:32;2.85;;;1.10;;
24644;SDS011;12780;45.502;9.146;2023-05-07T02:31:01;10.90;;;1.63;;
24644;SDS011;12780;45.502;9.146;2023-05-07T02:33:27;2.15;;;1.20;;
24644;SDS011;12780;45.502;9.146;2023-05-07T02:35:53;4.28;;;1.20;;
24644;SDS011;12780;45.502;9.146;2023-05-07T02:38:19;6.07;;;1.33;;
24644;SDS011;12780;45.502;9.146;2023-05-07T02:40:45;1.90;;;1.10;;
24644;SDS011;12780;45.502;9.146;2023-05-07T02:43:12;4.10;;;1.38;;
24644;SDS011;12780;45.502;9.146;2023-05-07T02:45:38;5.40;;;1.50;;
24644;SDS011;12780;45.502;9.146;2023-05-07T02:48:04;1.65;;;1.10;;
24644;SDS011;12780;45.502;9.146;2023-05-07T02:50:31;2.78;;;1.35;;
24644;SDS011;12780;45.502;9.146;2023-05-07T02:52:57;2.53;;;1.50;;
24644;SDS011;12780;45.502;9.146;2023-05-07T02:55:23;3.38;;;1.42;;
24644;SDS011;12780;45.502;9.146;2023-05-07T02:57:49;6.38;;;1.42;;
24644;SDS011;12780;45.502;9.146;2023-05-07T03:00:16;7.47;;;1.73;;
24644;SDS011;12780;45.502;9.146;2023-05-07T03:02:43;2.30;;;1.60;;
24644;SDS011;12780;45.502;9.146;2023-05-07T03:05:09;6.20;;;1.60;;
24644;SDS011;12780;45.502;9.146;2023-05-07T03:07:36;3.90;;;2.08;;
24644;SDS011;12780;45.502;9.146;2023-05-07T03:10:02;3.63;;;1.55;;
24644;SDS011;12780;45.502;9.146;2023-05-07T03:12:28;2.13;;;1.52;;
24644;SDS011;12780;45.502;9.146;2023-05-07T03:14:55;3.30;;;1.73;;
24644;SDS011;12780;45.502;9.146;2023-05-07T03:17:21;3.63;;;1.80;;
24644;SDS011;12780;45.502;9.146;2023-05-07T03:19:47;2.65;;;1.77;;
24644;SDS011;12780;45.502;9.146;2023-05-07T03:22:13;2.45;;;1.85;;
24644;SDS011;12780;45.502;9.146;2023-05-07T03:24:39;2.10;;;1.60;;
24644;SDS011;12780;45.502;9.146;2023-05-07T03:27:05;2.63;;;1.83;;
24644;SDS011;12780;45.502;9.146;2023-05-07T03:29:32;5.13;;;1.67;;
24644;SDS011;12780;45.502;9.146;2023-05-07T03:31:58;5.45;;;1.60;;
24644;SDS011;12780;45.502;9.146;2023-05-07T03:34:24;3.28;;;1.67;;
24644;SDS011;12780;45.502;9.146;2023-05-07T03:36:50;3.85;;;1.80;;
24644;SDS011;12780;45.502;9.146;2023-05-07T03:39:16;3.28;;;1.75;;
24644;SDS011;12780;45.502;9.146;2023-05-07T03:41:43;2.63;;;1.40;;
24644;SDS011;12780;45.502;9.146;2023-05-07T03:44:09;2.65;;;1.58;;
24644;SDS011;12780;45.502;9.146;2023-05-07T03:46:35;1.55;;;1.30;;
24644;SDS011;12780;45.502;9.146;2023-05-07T03:49:01;3.42;;;1.40;;
24644;SDS011;12780;45.502;9.146;2023-05-07T03:51:27;5.35;;;1.67;;
24644;SDS011;12780;45.502;9.146;2023-05-07T03:53:53;2.53;;;1.50;;
24644;SDS011;12780;45.502;9.146;2023-05-07T03:56:19;3.00;;;1.48;;
24644;SDS011;12780;45.502;9.146;2023-05-07T03:58:46;4.25;;;1.40;;
24644;SDS011;12780;45.502;9.146;2023-05-07T04:01:13;6.15;;;1.90;;
24644;SDS011;12780;45.502;9.146;2023-05-07T04:03:39;2.78;;;1.52;;
24644;SDS011;12780;45.502;9.146;2023-05-07T04:06:05;7.43;;;1.35;;
24644;SDS011;12780;45.502;9.146;2023-05-07T04:08:31;4.70;;;1.70;;
24644;SDS011;12780;45.502;9.146;2023-05-07T04:10:57;2.47;;;1.60;;
24644;SDS011;12780;45.502;9.146;2023-05-07T04:13:24;3.90;;;1.55;;
24644;SDS011;12780;45.502;9.146;2023-05-07T04:15:50;3.38;;;1.60;;
24644;SDS011;12780;45.502;9.146;2023-05-07T04:18:16;3.95;;;1.60;;
24644;SDS011;12780;45.502;9.146;2023-05-07T04:20:42;1.98;;;1.40;;
24644;SDS011;12780;45.502;9.146;2023-05-07T04:23:08;6.63;;;0.80;;
24644;SDS011;12780;45.502;9.146;2023-05-07T04:25:34;3.33;;;1.15;;
24644;SDS011;12780;45.502;9.146;2023-05-07T04:28:00;3.03;;;1.50;;
24644;SDS011;12780;45.502;9.146;2023-05-07T04:30:26;4.78;;;1.73;;
24644;SDS011;12780;45.502;9.146;2023-05-07T04:32:52;3.08;;;1.70;;
24644;SDS011;12780;45.502;9.146;2023-05-07T04:35:19;6.43;;;1.80;;
24644;SDS011;12780;45.502;9.146;2023-05-07T04:37:45;6.95;;;1.83;;
24644;SDS011;12780;45.502;9.146;2023-05-07T04:40:11;4.50;;;1.85;;
24644;SDS011;12780;45.502;9.146;2023-05-07T04:42:37;6.60;;;2.05;;
24644;SDS011;12780;45.502;9.146;2023-05-07T04:45:03;2.22;;;1.65;;
24644;SDS011;12780;45.502;9.146;2023-05-07T04:47:30;6.22;;;2.30;;
24644;SDS011;12780;45.502;9.146;2023-05-07T04:49:57;6.65;;;1.95;;
24644;SDS011;12780;45.502;9.146;2023-05-07T04:52:23;6.78;;;2.10;;
24644;SDS011;12780;45.502;9.146;2023-05-07T04:54:49;3.50;;;2.03;;
24644;SDS011;12780;45.502;9.146;2023-05-07T04:57:15;4.13;;;2.13;;
24644;SDS011;12780;45.502;9.146;2023-05-07T04:59:42;8.13;;;2.22;;
24644;SDS011;12780;45.502;9.146;2023-05-07T05:02:09;3.05;;;1.90;;
24644;SDS011;12780;45.502;9.146;2023-05-07T05:04:35;4.15;;;1.90;;
24644;SDS011;12780;45.502;9.146;2023-05-07T05:07:02;7.07;;;2.40;;
24644;SDS011;12780;45.502;9.146;2023-05-07T05:09:30;4.05;;;2.25;;
24644;SDS011;12780;45.502;9.146;2023-05-07T05:11:56;5.80;;;2.58;;
24644;SDS011;12780;45.502;9.146;2023-05-07T05:14:22;6.07;;;2.20;;
24644;SDS011;12780;45.502;9.146;2023-05-07T05:16:48;3.92;;;2.38;;
24644;SDS011;12780;45.502;9.146;2023-05-07T05:19:14;4.85;;;2.03;;
24644;SDS011;12780;45.502;9.146;2023-05-07T05:21:41;2.58;;;1.85;;
24644;SDS011;12780;45.502;9.146;2023-05-07T05:24:07;2.83;;;1.90;;
24644;SDS011;12780;45.502;9.146;2023-05-07T05:26:33;6.05;;;2.15;;
24644;SDS011;12780;45.502;9.146;2023-05-07T05:28:59;2.75;;;1.70;;
24644;SDS011;12780;45.502;9.146;2023-05-07T05:31:25;3.45;;;1.80;;
24644;SDS011;12780;45.502;9.146;2023-05-07T05:33:51;2.22;;;1.70;;
24644;SDS011;12780;45.502;9.146;2023-05-07T05:36:18;3.78;;;2.05;;
24644;SDS011;12780;45.502;9.146;2023-05-07T05:38:44;2.08;;;1.88;;
24644;SDS011;12780;45.502;9.146;2023-05-07T05:41:10;5.10;;;2.25;;
24644;SDS011;12780;45.502;9.146;2023-05-07T05:43:36;5.00;;;2.28;;
24644;SDS011;12780;45.502;9.146;2023-05-07T05:46:02;4.40;;;2.30;;
24644;SDS011;12780;45.502;9.146;2023-05-07T05:48:29;4.28;;;2.20;;
24644;SDS011;12780;45.502;9.146;2023-05-07T05:50:55;4.30;;;2.38;;
24644;SDS011;12780;45.502;9.146;2023-05-07T05:53:21;3.25;;;2.30;;
24644;SDS011;12780;45.502;9.146;2023-05-07T05:55:47;4.82;;;2.10;;
24644;SDS011;12780;45.502;9.146;2023-05-07T05:58:14;2.70;;;2.00;;
24644;SDS011;12780;45.502;9.146;2023-05-07T06:00:40;3.63;;;2.20;;
24644;SDS011;12780;45.502;9.146;2023-05-07T06:03:06;3.88;;;2.25;;
24644;SDS011;12780;45.502;9.146;2023-05-07T06:05:32;3.60;;;2.35;;
24644;SDS011;12780;45.502;9.146;2023-05-07T06:07:58;2.80;;;2.20;;
24644;SDS011;12780;45.502;9.146;2023-05-07T06:10:24;3.47;;;2.30;;
24644;SDS011;12780;45.502;9.146;2023-05-07T06:12:52;3.95;;;2.28;;
24644;SDS011;12780;45.502;9.146;2023-05-07T06:15:18;2.60;;;1.83;;
24644;SDS011;12780;45.502;9.146;2023-05-07T06:17:44;3.03;;;1.95;;
24644;SDS011;12780;45.502;9.146;2023-05-07T06:20:10;2.80;;;2.00;;
24644;SDS011;12780;45.502;9.146;2023-05-07T06:22:36;4.60;;;2.50;;
24644;SDS011;12780;45.502;9.146;2023-05-07T06:25:02;6.32;;;2.42;;
24644;SDS011;12780;45.502;9.146;2023-05-07T06:27:28;3.03;;;2.10;;
24644;SDS011;12780;45.502;9.146;2023-05-07T06:29:54;3.35;;;2.25;;
24644;SDS011;12780;45.502;9.146;2023-05-07T06:32:20;1.90;;;1.70;;
24644;SDS011;12780;45.502;9.146;2023-05-07T06:34:46;3.17;;;2.08;;
24644;SDS011;12780;45.502;9.146;2023-05-07T06:37:12;3.60;;;1.92;;
24644;SDS011;12780;45.502;9.146;2023-05-07T06:39:38;2.65;;;2.15;;
24644;SDS011;12780;45.502;9.146;2023-05-07T06:42:04;3.83;;;2.30;;
24644;SDS011;12780;45.502;9.146;2023-05-07T06:44:30;3.30;;;2.30;;
24644;SDS011;12780;45.502;9.146;2023-05-07T06:46:57;3.22;;;1.95;;
24644;SDS011;12780;45.502;9.146;2023-05-07T06:49:23;4.53;;;2.03;;
24644;SDS011;12780;45.502;9.146;2023-05-07T06:51:49;6.15;;;2.35;;
24644;SDS011;12780;45.502;9.146;2023-05-07T06:54:15;4.40;;;2.22;;
24644;SDS011;12780;45.502;9.146;2023-05-07T06:56:41;2.55;;;2.20;;
24644;SDS011;12780;45.502;9.146;2023-05-07T06:59:07;3.10;;;2.08;;
24644;SDS011;12780;45.502;9.146;2023-05-07T07:01:33;5.30;;;2.75;;
24644;SDS011;12780;45.502;9.146;2023-05-07T07:04:00;4.72;;;2.50;;
24644;SDS011;12780;45.502;9.146;2023-05-07T07:06:25;3.00;;;2.00;;
24644;SDS011;12780;45.502;9.146;2023-05-07T07:08:51;5.88;;;2.40;;
24644;SDS011;12780;45.502;9.146;2023-05-07T07:11:17;4.07;;;2.33;;
24644;SDS011;12780;45.502;9.146;2023-05-07T07:13:43;3.78;;;2.47;;
24644;SDS011;12780;45.502;9.146;2023-05-07T07:16:10;7.32;;;2.80;;
24644;SDS011;12780;45.502;9.146;2023-05-07T07:18:36;7.35;;;2.83;;
24644;SDS011;12780;45.502;9.146;2023-05-07T07:21:02;3.17;;;2.35;;
24644;SDS011;12780;45.502;9.146;2023-05-07T07:23:28;5.35;;;2.70;;
24644;SDS011;12780;45.502;9.146;2023-05-07T07:25:54;4.43;;;2.80;;
24644;SDS011;12780;45.502;9.146;2023-05-07T07:28:20;4.38;;;2.40;;
24644;SDS011;12780;45.502;9.146;2023-05-07T07:30:47;5.45;;;2.65;;
24644;SDS011;12780;45.502;9.146;2023-05-07T07:33:13;5.63;;;2.50;;
24644;SDS011;12780;45.502;9.146;2023-05-07T07:35:39;5.10;;;2.60;;
24644;SDS011;12780;45.502;9.146;2023-05-07T07:38:05;7.68;;;2.75;;
24644;SDS011;12780;45.502;9.146;2023-05-07T07:40:31;5.63;;;2.70;;
24644;SDS011;12780;45.502;9.146;2023-05-07T07:42:57;4.88;;;2.58;;
24644;SDS011;12780;45.502;9.146;2023-05-07T07:45:24;6.78;;;3.00;;
24644;SDS011;12780;45.502;9.146;2023-05-07T07:47:50;6.07;;;2.90;;
24644;SDS011;12780;45.502;9.146;2023-05-07T07:50:16;4.45;;;2.67;;
24644;SDS011;12780;45.502;9.146;2023-05-07T07:52:42;4.30;;;3.15;;
24644;SDS011;12780;45.502;9.146;2023-05-07T07:55:08;5.72;;;2.75;;
24644;SDS011;12780;45.502;9.146;2023-05-07T07:57:34;5.47;;;2.60;;
24644;SDS011;12780;45.502;9.146;2023-05-07T08:00:01;3.95;;;2.53;;
24644;SDS011;12780;45.502;9.146;2023-05-07T08:02:27;5.05;;;2.50;;
24644;SDS011;12780;45.502;9.146;2023-05-07T08:04:53;6.10;;;3.03;;
24644;SDS011;12780;45.502;9.146;2023-05-07T08:07:19;5.30;;;2.80;;
24644;SDS011;12780;45.502;9.146;2023-05-07T08:09:47;5.03;;;3.20;;
24644;SDS011;12780;45.502;9.146;2023-05-07T08:12:13;5.43;;;2.90;;
24644;SDS011;12780;45.502;9.146;2023-05-07T08:14:39;5.15;;;2.42;;
24644;SDS011;12780;45.502;9.146;2023-05-07T08:17:06;3.13;;;2.20;;
24644;SDS011;12780;45.502;9.146;2023-05-07T08:19:32;8.38;;;2.50;;
24644;SDS011;12780;45.502;9.146;2023-05-07T08:21:58;2.95;;;1.90;;
24644;SDS011;12780;45.502;9.146;2023-05-07T08:24:24;4.75;;;2.03;;
24644;SDS011;12780;45.502;9.146;2023-05-07T08:26:50;4.93;;;2.33;;
24644;SDS011;12780;45.502;9.146;2023-05-07T08:29:16;5.15;;;3.10;;
24644;SDS011;12780;45.502;9.146;2023-05-07T08:31:42;3.45;;;2.40;;
24644;SDS011;12780;45.502;9.146;2023-05-07T08:34:08;3.05;;;2.33;;
24644;SDS011;12780;45.502;9.146;2023-05-07T08:36:34;11.52;;;3.13;;
24644;SDS011;12780;45.502;9.146;2023-05-07T08:39:00;3.45;;;2.65;;
24644;SDS011;12780;45.502;9.146;2023-05-07T08:41:26;4.68;;;2.88;;
24644;SDS011;12780;45.502;9.146;2023-05-07T08:43:52;5.60;;;2.85;;
24644;SDS011;12780;45.502;9.146;2023-05-07T08:46:19;4.25;;;2.90;;
24644;SDS011;12780;45.502;9.146;2023-05-07T08:48:47;3.72;;;2.50;;
24644;SDS011;12780;45.502;9.146;2023-05-07T08:51:14;3.55;;;2.35;;
24644;SDS011;12780;45.502;9.146;2023-05-07T08:53:41;3.80;;;2.13;;
24644;SDS011;12780;45.502;9.146;2023-05-07T08:56:08;4.35;;;2.28;;
24644;SDS011;12780;45.502;9.146;2023-05-07T08:58:34;3.97;;;2.60;;
24644;SDS011;12780;45.502;9.146;2023-05-07T09:01:01;5.95;;;3.42;;
24644;SDS011;12780;45.502;9.146;2023-05-07T09:03:30;3.75;;;3.03;;
24644;SDS011;12780;45.502;9.146;2023-05-07T09:05:56;8.50;;;3.30;;
24644;SDS011;12780;45.502;9.146;2023-05-07T09:08:24;5.60;;;3.65;;
24644;SDS011;12780;45.502;9.146;2023-05-07T09:10:51;5.68;;;3.42;;
24644;SDS011;12780;45.502;9.146;2023-05-07T09:13:17;6.57;;;3.38;;
24644;SDS011;12780;45.502;9.146;2023-05-07T09:15:44;8.10;;;3.83;;
24644;SDS011;12780;45.502;9.146;2023-05-07T09:18:10;7.75;;;4.43;;
24644;SDS011;12780;45.502;9.146;2023-05-07T09:20:36;6.57;;;4.15;;
24644;SDS011;12780;45.502;9.146;2023-05-07T09:23:02;6.90;;;3.83;;
24644;SDS011;12780;45.502;9.146;2023-05-07T09:25:29;5.30;;;3.90;;
24644;SDS011;12780;45.502;9.146;2023-05-07T09:27:55;6.40;;;3.97;;
24644;SDS011;12780;45.502;9.146;2023-05-07T09:30:21;6.75;;;4.20;;
24644;SDS011;12780;45.502;9.146;2023-05-07T09:32:47;4.85;;;3.85;;
24644;SDS011;12780;45.502;9.146;2023-05-07T09:35:17;5.88;;;3.90;;
24644;SDS011;12780;45.502;9.146;2023-05-07T09:37:43;5.00;;;3.90;;
24644;SDS011;12780;45.502;9.146;2023-05-07T09:40:19;6.90;;;3.70;;
24644;SDS011;12780;45.502;9.146;2023-05-07T09:42:46;7.45;;;4.20;;
24644;SDS011;12780;45.502;9.146;2023-05-07T09:45:12;6.45;;;3.42;;
24644;SDS011;12780;45.502;9.146;2023-05-07T09:47:38;8.32;;;3.80;;
24644;SDS011;12780;45.502;9.146;2023-05-07T09:50:05;6.43;;;3.40;;
24644;SDS011;12780;45.502;9.146;2023-05-07T09:52:32;4.55;;;3.85;;
24644;SDS011;12780;45.502;9.146;2023-05-07T09:55:00;5.82;;;3.65;;
24644;SDS011;12780;45.502;9.146;2023-05-07T09:57:27;5.32;;;3.25;;
24644;SDS011;12780;45.502;9.146;2023-05-07T09:59:54;5.57;;;3.30;;
24644;SDS011;12780;45.502;9.146;2023-05-07T10:02:21;5.75;;;2.63;;
24644;SDS011;12780;45.502;9.146;2023-05-07T10:04:47;6.90;;;2.88;;
24644;SDS011;12780;45.502;9.146;2023-05-07T10:07:14;3.60;;;2.38;;
24644;SDS011;12780;45.502;9.146;2023-05-07T10:09:40;2.92;;;2.20;;
24644;SDS011;12780;45.502;9.146;2023-05-07T10:12:07;2.65;;;2.15;;
24644;SDS011;12780;45.502;9.146;2023-05-07T10:14:34;4.20;;;2.08;;
24644;SDS011;12780;45.502;9.146;2023-05-07T10:17:00;3.38;;;2.25;;
24644;SDS011;12780;45.502;9.146;2023-05-07T10:19:27;4.63;;;2.17;;
24644;SDS011;12780;45.502;9.146;2023-05-07T10:21:55;3.97;;;2.30;;
24644;SDS011;12780;45.502;9.146;2023-05-07T10:24:25;3.92;;;2.22;;
24644;SDS011;12780;45.502;9.146;2023-05-07T10:26:52;3.38;;;2.15;;
24644;SDS011;12780;45.502;9.146;2023-05-07T10:31:55;3.90;;;2.57;;
24644;SDS011;12780;45.502;9.146;2023-05-07T10:34:28;3.67;;;2.67;;
24644;SDS011;12780;45.502;9.146;2023-05-07T10:36:55;3.65;;;2.35;;
24644;SDS011;12780;45.502;9.146;2023-05-07T10:39:21;4.53;;;2.55;;
24644;SDS011;12780;45.502;9.146;2023-05-07T10:41:47;4.22;;;2.88;;
24644;SDS011;12780;45.502;9.146;2023-05-07T10:44:27;3.83;;;2.97;;
24644;SDS011;12780;45.502;9.146;2023-05-07T10:47:09;6.15;;;3.33;;
24644;SDS011;12780;45.502;9.146;2023-05-07T10:49:36;3.95;;;3.10;;
24644;SDS011;12780;45.502;9.146;2023-05-07T10:52:18;5.00;;;3.20;;
24644;SDS011;12780;45.502;9.146;2023-05-07T10:54:45;4.82;;;3.20;;
24644;SDS011;12780;45.502;9.146;2023-05-07T11:05:27;4.22;;;3.30;;
24644;SDS011;12780;45.502;9.146;2023-05-07T11:07:58;6.90;;;3.15;;
24644;SDS011;12780;45.502;9.146;2023-05-07T11:13:09;5.63;;;3.70;;
24644;SDS011;12780;45.502;9.146;2023-05-07T11:15:36;7.97;;;4.00;;
24644;SDS011;12780;45.502;9.146;2023-05-07T11:18:03;5.03;;;2.80;;
24644;SDS011;12780;45.502;9.146;2023-05-07T11:20:45;5.05;;;3.03;;
24644;SDS011;12780;45.502;9.146;2023-05-07T11:26:00;3.85;;;3.35;;
24644;SDS011;12780;45.502;9.146;2023-05-07T11:28:27;4.53;;;3.00;;
24644;SDS011;12780;45.502;9.146;2023-05-07T11:30:53;3.10;;;2.80;;
24644;SDS011;12780;45.502;9.146;2023-05-07T11:33:19;4.07;;;3.22;;
24644;SDS011;12780;45.502;9.146;2023-05-07T11:35:46;3.60;;;3.05;;
24644;SDS011;12780;45.502;9.146;2023-05-07T11:38:12;3.92;;;2.42;;
24644;SDS011;12780;45.502;9.146;2023-05-07T11:40:58;5.13;;;3.40;;
24644;SDS011;12780;45.502;9.146;2023-05-07T11:43:25;4.15;;;2.75;;
24644;SDS011;12780;45.502;9.146;2023-05-07T11:45:51;3.60;;;2.60;;
24644;SDS011;12780;45.502;9.146;2023-05-07T11:48:18;7.13;;;2.55;;
24644;SDS011;12780;45.502;9.146;2023-05-07T11:53:40;4.35;;;2.88;;
24644;SDS011;12780;45.502;9.146;2023-05-07T11:56:10;8.02;;;4.05;;
24644;SDS011;12780;45.502;9.146;2023-05-07T11:58:36;17.75;;;4.53;;
24644;SDS011;12780;45.502;9.146;2023-05-07T12:01:03;4.05;;;2.65;;
24644;SDS011;12780;45.502;9.146;2023-05-07T12:03:29;4.22;;;3.00;;
24644;SDS011;12780;45.502;9.146;2023-05-07T12:05:55;4.35;;;2.70;;
24644;SDS011;12780;45.502;9.146;2023-05-07T12:08:21;4.13;;;2.83;;
24644;SDS011;12780;45.502;9.146;2023-05-07T12:10:50;5.20;;;2.95;;
24644;SDS011;12780;45.502;9.146;2023-05-07T12:13:17;3.35;;;2.72;;
24644;SDS011;12780;45.502;9.146;2023-05-07T12:15:43;4.63;;;2.40;;
24644;SDS011;12780;45.502;9.146;2023-05-07T12:18:12;3.28;;;2.33;;
24644;SDS011;12780;45.502;9.146;2023-05-07T12:20:39;3.40;;;2.90;;
24644;SDS011;12780;45.502;9.146;2023-05-07T12:23:05;3.90;;;2.42;;
24644;SDS011;12780;45.502;9.146;2023-05-07T12:25:35;4.13;;;2.40;;
24644;SDS011;12780;45.502;9.146;2023-05-07T12:28:04;2.08;;;1.90;;
24644;SDS011;12780;45.502;9.146;2023-05-07T12:30:31;2.90;;;2.47;;
24644;SDS011;12780;45.502;9.146;2023-05-07T12:32:57;3.22;;;2.28;;
24644;SDS011;12780;45.502;9.146;2023-05-07T12:35:30;3.60;;;2.40;;
24644;SDS011;12780;45.502;9.146;2023-05-07T12:37:56;3.03;;;2.25;;
24644;SDS011;12780;45.502;9.146;2023-05-07T12:40:24;2.45;;;2.22;;
24644;SDS011;12780;45.502;9.146;2023-05-07T12:42:52;4.40;;;2.13;;
24644;SDS011;12780;45.502;9.146;2023-05-07T12:45:21;3.88;;;2.10;;
24644;SDS011;12780;45.502;9.146;2023-05-07T12:47:47;1.83;;;1.73;;
24644;SDS011;12780;45.502;9.146;2023-05-07T12:50:14;3.15;;;1.90;;
24644;SDS011;12780;45.502;9.146;2023-05-07T12:52:40;2.65;;;2.05;;
24644;SDS011;12780;45.502;9.146;2023-05-07T12:55:07;3.88;;;1.77;;
24644;SDS011;12780;45.502;9.146;2023-05-07T12:57:47;2.65;;;2.10;;
24644;SDS011;12780;45.502;9.146;2023-05-07T13:00:13;3.50;;;1.73;;
24644;SDS011;12780;45.502;9.146;2023-05-07T13:02:40;2.00;;;1.67;;
24644;SDS011;12780;45.502;9.146;2023-05-07T13:05:09;2.05;;;1.50;;
24644;SDS011;12780;45.502;9.146;2023-05-07T13:07:35;1.92;;;1.58;;
24644;SDS011;12780;45.502;9.146;2023-05-07T13:10:02;3.22;;;1.98;;
24644;SDS011;12780;45.502;9.146;2023-05-07T13:12:28;2.92;;;1.92;;
24644;SDS011;12780;45.502;9.146;2023-05-07T13:14:54;2.50;;;2.30;;
24644;SDS011;12780;45.502;9.146;2023-05-07T13:17:20;2.63;;;2.10;;
24644;SDS011;12780;45.502;9.146;2023-05-07T13:19:46;9.85;;;3.10;;
24644;SDS011;12780;45.502;9.146;2023-05-07T13:22:12;2.85;;;2.40;;
24644;SDS011;12780;45.502;9.146;2023-05-07T13:24:38;2.88;;;2.13;;
24644;SDS011;12780;45.502;9.146;2023-05-07T13:27:06;3.33;;;2.15;;
24644;SDS011;12780;45.502;9.146;2023-05-07T13:29:32;3.97;;;2.60;;
24644;SDS011;12780;45.502;9.146;2023-05-07T13:31:59;3.95;;;2.72;;
24644;SDS011;12780;45.502;9.146;2023-05-07T13:34:25;5.45;;;2.50;;
24644;SDS011;12780;45.502;9.146;2023-05-07T13:36:51;3.72;;;2.08;;
24644;SDS011;12780;45.502;9.146;2023-05-07T13:39:17;4.22;;;2.22;;
24644;SDS011;12780;45.502;9.146;2023-05-07T13:41:43;3.30;;;2.80;;
24644;SDS011;12780;45.502;9.146;2023-05-07T13:44:09;3.30;;;2.45;;
24644;SDS011;12780;45.502;9.146;2023-05-07T13:46:35;2.97;;;2.15;;
24644;SDS011;12780;45.502;9.146;2023-05-07T13:49:01;3.65;;;2.40;;
24644;SDS011;12780;45.502;9.146;2023-05-07T13:51:27;3.25;;;2.20;;
24644;SDS011;12780;45.502;9.146;2023-05-07T13:53:53;3.33;;;2.20;;
24644;SDS011;12780;45.502;9.146;2023-05-07T13:56:19;3.97;;;2.00;;
24644;SDS011;12780;45.502;9.146;2023-05-07T13:58:46;3.40;;;2.20;;
24644;SDS011;12780;45.502;9.146;2023-05-07T14:01:12;2.33;;;2.10;;
24644;SDS011;12780;45.502;9.146;2023-05-07T14:03:38;5.03;;;2.30;;
24644;SDS011;12780;45.502;9.146;2023-05-07T14:06:04;7.25;;;2.08;;
24644;SDS011;12780;45.502;9.146;2023-05-07T14:08:31;4.57;;;1.83;;
24644;SDS011;12780;45.502;9.146;2023-05-07T14:10:57;5.82;;;2.60;;
24644;SDS011;12780;45.502;9.146;2023-05-07T14:13:23;3.83;;;2.50;;
24644;SDS011;12780;45.502;9.146;2023-05-07T14:15:49;3.80;;;2.50;;
24644;SDS011;12780;45.502;9.146;2023-05-07T14:18:15;5.80;;;2.17;;
24644;SDS011;12780;45.502;9.146;2023-05-07T14:20:41;3.13;;;2.35;;
24644;SDS011;12780;45.502;9.146;2023-05-07T14:23:11;6.43;;;2.25;;
24644;SDS011;12780;45.502;9.146;2023-05-07T14:25:37;8.40;;;2.30;;
24644;SDS011;12780;45.502;9.146;2023-05-07T14:28:03;5.07;;;2.63;;
24644;SDS011;12780;45.502;9.146;2023-05-07T14:30:30;2.35;;;2.00;;
24644;SDS011;12780;45.502;9.146;2023-05-07T14:32:56;2.75;;;2.30;;
24644;SDS011;12780;45.502;9.146;2023-05-07T14:35:22;2.47;;;2.00;;
24644;SDS011;12780;45.502;9.146;2023-05-07T14:37:48;2.90;;;2.00;;
24644;SDS011;12780;45.502;9.146;2023-05-07T14:40:14;5.88;;;2.78;;
24644;SDS011;12780;45.502;9.146;2023-05-07T14:42:40;4.75;;;2.40;;
24644;SDS011;12780;45.502;9.146;2023-05-07T14:45:06;3.05;;;2.25;;
24644;SDS011;12780;45.502;9.146;2023-05-07T14:47:33;5.40;;;2.20;;
24644;SDS011;12780;45.502;9.146;2023-05-07T14:49:59;3.55;;;2.05;;
24644;SDS011;12780;45.502;9.146;2023-05-07T14:52:26;8.57;;;1.80;;
24644;SDS011;12780;45.502;9.146;2023-05-07T14:54:52;3.10;;;1.80;;
24644;SDS011;12780;45.502;9.146;2023-05-07T14:57:18;4.88;;;2.10;;
24644;SDS011;12780;45.502;9.146;2023-05-07T14:59:44;3.47;;;2.08;;
24644;SDS011;12780;45.502;9.146;2023-05-07T15:02:11;2.55;;;1.98;;
24644;SDS011;12780;45.502;9.146;2023-05-07T15:04:37;2.63;;;1.77;;